createdAt,value
2019-02-11T00:01:00.110Z,76.91
2019-02-11T00:04:15.615Z,76.85
2019-02-11T00:07:31.170Z,77.19
2019-02-11T00:10:46.741Z,77.87
2019-02-11T00:14:02.630Z,77.02
2019-02-11T00:17:18.154Z,76.53
2019-02-11T00:20:33.507Z,76.41
2019-02-11T00:23:48.659Z,75.83
2019-02-11T00:27:03.959Z,75.44
2019-02-11T00:30:19.371Z,75.44
2019-02-11T00:33:34.610Z,75.36
2019-02-11T00:36:49.965Z,76.01
2019-02-11T00:40:05.428Z,75.73
2019-02-11T00:43:20.873Z,75.64
2019-02-11T00:50:06.431Z,76.31
2019-02-11T00:53:21.873Z,76.50
2019-02-11T00:56:37.740Z,76.47
2019-02-11T00:59:53.092Z,76.38
2019-02-11T01:03:08.347Z,76.45
2019-02-11T01:06:23.801Z,76.23
2019-02-11T01:09:39.594Z,76.22
2019-02-11T01:12:54.810Z,76.32
2019-02-11T01:16:10.281Z,76.36
2019-02-11T01:19:25.743Z,76.20
2019-02-11T01:22:41.282Z,76.67
2019-02-11T01:25:56.835Z,76.20
2019-02-11T01:29:12.191Z,76.85
2019-02-11T01:32:27.666Z,76.91
2019-02-11T01:35:43.118Z,76.54
2019-02-11T01:38:58.222Z,77.19
2019-02-11T01:42:13.615Z,76.56
2019-02-11T01:45:29.059Z,76.73
2019-02-11T01:48:45.001Z,77.09
2019-02-11T01:52:00.074Z,76.23
2019-02-11T01:55:15.218Z,76.44
2019-02-11T01:58:30.686Z,75.98
2019-02-11T02:01:46.154Z,77.13
2019-02-11T02:05:01.386Z,76.24
2019-02-11T02:08:16.735Z,77.15
2019-02-11T02:11:32.186Z,76.52
2019-02-11T02:14:47.552Z,76.27
2019-02-11T02:18:03.102Z,76.41
2019-02-11T02:21:18.962Z,75.72
2019-02-11T02:24:35.534Z,76.59
2019-02-11T02:27:50.694Z,76.19
2019-02-11T02:31:06.250Z,76.24
2019-02-11T02:34:22.404Z,76.51
2019-02-11T02:37:38.242Z,77.07
2019-02-11T02:40:53.742Z,76.61
2019-02-11T02:44:08.996Z,78.28
2019-02-11T02:47:23.984Z,78.87
2019-02-11T02:50:39.059Z,78.88
2019-02-11T02:53:54.442Z,79.64
2019-02-11T02:57:09.904Z,79.93
2019-02-11T03:00:25.269Z,80.08
2019-02-11T03:03:41.587Z,80.20
2019-02-11T03:06:56.773Z,80.94
2019-02-11T03:10:12.307Z,80.95
2019-02-11T03:13:27.485Z,81.60
2019-02-11T03:16:42.726Z,81.04
2019-02-11T03:19:58.185Z,81.26
2019-02-11T03:23:13.740Z,81.57
2019-02-11T03:26:29.207Z,82.26
2019-02-11T03:29:44.655Z,82.07
2019-02-11T03:33:00.212Z,82.83
2019-02-11T03:36:15.675Z,82.69
2019-02-11T03:39:30.797Z,82.97
2019-02-11T03:42:46.019Z,82.89
2019-02-11T03:46:01.328Z,83.41
2019-02-11T03:49:17.956Z,83.78
2019-02-11T03:52:33.759Z,83.01
2019-02-11T03:55:49.215Z,82.56
2019-02-11T03:59:04.973Z,82.47
2019-02-11T04:02:20.538Z,82.66
2019-02-11T04:05:35.907Z,82.52
2019-02-11T04:08:51.453Z,81.97
2019-02-11T04:12:06.647Z,82.67
2019-02-11T04:15:22.412Z,81.60
2019-02-11T04:18:37.733Z,82.04
2019-02-11T04:22:18.442Z,81.68
2019-02-11T04:25:33.795Z,81.86
2019-02-11T04:28:49.253Z,81.61
2019-02-11T04:32:04.493Z,81.42
2019-02-11T04:35:19.757Z,81.17
2019-02-11T04:38:35.003Z,81.57
2019-02-11T04:41:50.262Z,80.73
2019-02-11T04:45:05.402Z,80.50
2019-02-11T04:48:21.496Z,80.44
2019-02-11T04:51:36.827Z,79.57
2019-02-11T04:54:52.452Z,79.92
2019-02-11T04:58:07.747Z,79.73
2019-02-11T05:01:23.200Z,79.06
2019-02-11T05:04:39.334Z,79.51
2019-02-11T05:07:54.727Z,77.81
2019-02-11T05:11:09.863Z,78.58
2019-02-11T05:14:25.045Z,79.30
2019-02-11T05:17:41.120Z,78.55
2019-02-11T05:20:56.209Z,77.39
2019-02-11T05:24:11.389Z,78.47
2019-02-11T05:27:26.739Z,77.61
2019-02-11T05:30:41.881Z,77.34
2019-02-11T05:33:57.481Z,76.47
2019-02-11T05:37:12.918Z,76.69
2019-02-11T05:40:28.364Z,77.19
2019-02-11T05:43:43.702Z,77.36
2019-02-11T05:46:59.492Z,77.41
2019-02-11T05:50:14.929Z,77.64
2019-02-11T05:53:30.374Z,77.07
2019-02-11T05:56:45.775Z,76.75
2019-02-11T06:00:01.209Z,76.68
2019-02-11T06:03:16.304Z,77.86
2019-02-11T06:06:31.799Z,77.31
2019-02-11T06:09:47.252Z,77.45
2019-02-11T06:13:02.595Z,77.39
2019-02-11T06:16:18.063Z,77.76
2019-02-11T06:19:33.233Z,77.85
2019-02-11T06:22:48.760Z,77.46
2019-02-11T06:26:04.314Z,77.77
2019-02-11T06:29:19.871Z,77.85
2019-02-11T06:32:35.327Z,78.13
2019-02-11T06:35:50.584Z,78.49
2019-02-11T06:39:05.999Z,78.90
2019-02-11T06:42:22.147Z,77.87
2019-02-11T06:45:38.063Z,78.73
2019-02-11T06:48:53.630Z,78.81
2019-02-11T06:52:09.496Z,78.76
2019-02-11T06:55:25.675Z,78.10
2019-02-11T06:58:41.041Z,77.60
2019-02-11T07:01:56.578Z,77.75
2019-02-11T07:05:12.036Z,77.39
2019-02-11T07:08:27.313Z,77.63
2019-02-11T07:11:43.364Z,77.49
2019-02-11T07:14:58.934Z,77.48
2019-02-11T07:18:14.263Z,77.44
2019-02-11T07:21:29.412Z,77.35
2019-02-11T07:24:44.763Z,77.11
2019-02-11T07:27:59.912Z,77.21
2019-02-11T07:31:15.276Z,76.94
2019-02-11T07:34:30.823Z,76.67
2019-02-11T07:37:46.378Z,76.92
2019-02-11T07:41:01.951Z,76.88
2019-02-11T07:44:20.818Z,76.15
2019-02-11T07:47:36.124Z,75.57
2019-02-11T07:50:52.048Z,75.81
2019-02-11T07:54:07.447Z,76.05
2019-02-11T07:57:22.797Z,75.93
2019-02-11T08:00:38.256Z,75.96
2019-02-11T08:03:53.712Z,76.09
2019-02-11T08:07:09.169Z,76.48
2019-02-11T08:10:24.653Z,76.57
2019-02-11T08:13:39.984Z,76.57
2019-02-11T08:16:55.237Z,75.81
2019-02-11T08:20:10.796Z,75.31
2019-02-11T08:23:26.339Z,74.73
2019-02-11T08:26:42.261Z,74.47
2019-02-11T08:29:58.367Z,74.46
2019-02-11T08:33:13.627Z,74.14
2019-02-11T08:36:29.083Z,74.36
2019-02-11T08:39:44.660Z,74.45
2019-02-11T08:42:59.996Z,72.91
2019-02-11T08:46:15.350Z,72.94
2019-02-11T08:49:31.119Z,73.27
2019-02-11T08:52:46.569Z,73.00
2019-02-11T08:56:03.381Z,73.04
2019-02-11T08:59:19.363Z,73.26
2019-02-11T09:02:34.868Z,72.23
2019-02-11T09:05:50.202Z,71.52
2019-02-11T09:09:05.700Z,71.36
2019-02-11T09:12:20.934Z,70.99
2019-02-11T09:15:36.698Z,71.15
2019-02-11T09:18:51.956Z,69.84
2019-02-11T09:22:08.314Z,69.95
2019-02-11T09:25:23.885Z,70.80
2019-02-11T09:28:39.135Z,69.46
2019-02-11T09:31:55.251Z,69.48
2019-02-11T09:35:10.518Z,69.24
2019-02-11T09:38:26.515Z,67.40
2019-02-11T09:41:41.883Z,66.28
2019-02-11T09:44:57.026Z,66.43
2019-02-11T09:48:13.030Z,64.98
2019-02-11T09:51:30.403Z,64.48
2019-02-11T09:54:45.755Z,65.67
2019-02-11T09:58:01.206Z,65.62
2019-02-11T10:01:16.559Z,64.28
2019-02-11T10:04:32.740Z,64.30
2019-02-11T10:07:47.960Z,64.26
2019-02-11T10:11:03.446Z,62.33
2019-02-11T10:14:19.553Z,62.11
2019-02-11T10:17:35.069Z,63.40
2019-02-11T10:20:50.511Z,59.99
2019-02-11T10:24:06.082Z,62.00
2019-02-11T10:27:20.805Z,62.65
2019-02-11T10:30:36.797Z,62.23
2019-02-11T10:33:52.217Z,63.38
2019-02-11T10:37:08.066Z,63.49
2019-02-11T10:40:23.668Z,63.68
2019-02-11T10:43:39.154Z,63.59
2019-02-11T10:46:56.974Z,62.84
2019-02-11T10:50:14.978Z,61.33
2019-02-11T10:53:30.427Z,62.52
2019-02-11T10:56:46.135Z,63.24
2019-02-11T11:00:01.494Z,64.03
2019-02-11T11:03:16.850Z,62.13
2019-02-11T11:06:30.567Z,58.90
2019-02-11T11:09:47.332Z,59.53
2019-02-11T11:13:03.203Z,58.29
2019-02-11T11:16:16.821Z,56.47
2019-02-11T11:19:30.378Z,56.59
2019-02-11T11:22:44.250Z,54.92
2019-02-11T11:25:58.053Z,55.62
2019-02-11T11:29:11.753Z,51.06
2019-02-11T11:32:25.435Z,53.06
2019-02-11T11:35:39.157Z,54.23
2019-02-11T11:38:52.655Z,55.74
2019-02-11T11:42:06.206Z,56.65
2019-02-11T11:45:19.984Z,59.42
2019-02-11T11:48:33.477Z,59.47
2019-02-11T11:51:47.286Z,60.28
2019-02-11T11:55:00.890Z,60.01
2019-02-11T11:58:14.618Z,60.13
2019-02-11T12:01:28.101Z,60.67
2019-02-11T12:04:41.735Z,59.04
2019-02-11T12:07:55.322Z,60.27
2019-02-11T12:11:08.815Z,61.04
2019-02-11T12:14:22.376Z,62.65
2019-02-11T12:17:35.982Z,60.97
2019-02-11T12:20:49.734Z,61.53
2019-02-11T12:24:03.309Z,62.38
2019-02-11T12:27:16.833Z,62.84
2019-02-11T12:30:30.741Z,61.87
2019-02-11T12:33:44.912Z,62.96
2019-02-11T12:36:58.627Z,62.00
2019-02-11T12:40:12.443Z,62.31
2019-02-11T12:43:26.001Z,63.76
2019-02-11T12:46:39.493Z,63.59
2019-02-11T12:49:53.423Z,63.88
2019-02-11T12:53:07.035Z,64.34
2019-02-11T12:56:20.708Z,60.55
2019-02-11T12:59:34.280Z,60.20
2019-02-11T13:02:48.003Z,59.83
2019-02-11T13:06:02.092Z,57.79
2019-02-11T13:09:15.963Z,60.39
2019-02-11T13:12:29.597Z,59.10
2019-02-11T13:15:59.839Z,56.49
2019-02-11T13:18:58.703Z,53.61
2019-02-11T13:22:12.237Z,54.00
2019-02-11T13:25:26.070Z,52.51
2019-02-11T13:28:39.646Z,50.69
2019-02-11T13:31:53.242Z,50.25
2019-02-11T13:35:07.558Z,47.63
2019-02-11T13:38:21.184Z,49.27
2019-02-11T13:41:34.869Z,53.49
2019-02-11T13:44:48.356Z,52.92
2019-02-11T13:48:02.043Z,53.90
2019-02-11T13:51:15.741Z,54.55
2019-02-11T13:54:29.258Z,55.78
2019-02-11T13:57:43.193Z,57.13
2019-02-11T14:00:56.909Z,57.91
2019-02-11T14:04:10.703Z,58.21
2019-02-11T14:07:25.577Z,59.97
2019-02-11T14:10:41.033Z,59.23
2019-02-11T14:14:02.806Z,60.00
2019-02-11T14:17:32.340Z,59.77
2019-02-11T14:21:05.903Z,60.40
2019-02-11T14:24:19.671Z,59.09
2019-02-11T14:27:33.481Z,60.36
2019-02-11T14:30:47.375Z,59.21
2019-02-11T14:34:00.997Z,59.27
2019-02-11T14:37:14.704Z,59.83
2019-02-11T14:40:30.475Z,60.35
2019-02-11T14:43:44.677Z,59.19
2019-02-11T14:46:58.717Z,58.24
2019-02-11T14:50:12.658Z,57.55
2019-02-11T14:53:26.261Z,59.35
2019-02-11T14:56:39.824Z,59.67
2019-02-11T14:59:53.668Z,59.03
2019-02-11T15:03:07.300Z,59.68
2019-02-11T15:06:21.092Z,59.34
2019-02-11T15:09:34.811Z,59.24
2019-02-11T15:12:48.878Z,58.90
2019-02-11T15:16:02.680Z,59.18
2019-02-11T15:19:16.206Z,60.02
2019-02-11T15:22:30.017Z,60.50
2019-02-11T15:25:43.755Z,60.04
2019-02-11T15:28:57.466Z,60.60
2019-02-11T15:32:11.226Z,60.94
2019-02-11T15:35:24.976Z,61.33
2019-02-11T15:38:38.463Z,61.46
2019-02-11T15:41:52.207Z,61.34
2019-02-11T15:45:07.895Z,61.31
2019-02-11T15:48:21.591Z,61.35
2019-02-11T15:51:35.511Z,61.89
2019-02-11T15:54:49.120Z,62.08
2019-02-11T15:58:02.911Z,61.95
2019-02-11T16:01:16.434Z,62.48
2019-02-11T16:04:30.220Z,61.44
2019-02-11T16:07:44.266Z,62.48
2019-02-11T16:11:01.454Z,62.76
2019-02-11T16:14:13.692Z,62.92
2019-02-11T16:17:27.496Z,64.35
2019-02-11T16:20:41.259Z,64.15
2019-02-11T16:23:55.126Z,63.87
2019-02-11T16:27:09.391Z,63.82
2019-02-11T16:30:23.231Z,64.41
2019-02-11T16:33:36.966Z,64.84
2019-02-11T16:36:50.614Z,65.82
2019-02-11T16:40:06.469Z,65.03
2019-02-11T16:43:20.070Z,65.21
2019-02-11T16:46:33.570Z,65.69
2019-02-11T16:49:47.570Z,65.69
2019-02-11T16:53:01.393Z,65.71
2019-02-11T16:56:15.361Z,66.04
2019-02-11T16:59:29.572Z,66.24
2019-02-11T17:02:43.929Z,66.23
2019-02-11T17:05:58.032Z,66.83
2019-02-11T17:09:12.275Z,65.86
2019-02-11T17:12:26.078Z,65.90
2019-02-11T17:15:47.277Z,66.01
2019-02-11T17:19:09.469Z,66.71
2019-02-11T17:22:20.295Z,66.29
2019-02-11T17:25:34.067Z,66.42
2019-02-11T17:28:47.996Z,66.05
2019-02-11T17:32:01.877Z,66.04
2019-02-11T17:35:15.772Z,66.60
2019-02-11T17:38:29.709Z,67.08
2019-02-11T17:41:43.274Z,66.74
2019-02-11T17:44:56.968Z,67.19
2019-02-11T17:48:10.552Z,67.28
2019-02-11T17:51:24.247Z,67.21
2019-02-11T17:54:37.839Z,66.71
2019-02-11T17:57:51.431Z,66.74
2019-02-11T18:01:05.100Z,67.78
2019-02-11T18:04:18.555Z,70.15
2019-02-11T18:07:32.264Z,71.72
2019-02-11T18:10:45.906Z,73.39
2019-02-11T18:13:59.826Z,75.00
2019-02-11T18:17:13.296Z,76.91
2019-02-11T18:20:26.995Z,78.95
2019-02-11T18:23:40.686Z,79.84
2019-02-11T18:26:54.143Z,80.70
2019-02-11T18:30:09.122Z,80.55
2019-02-11T18:33:22.587Z,80.16
2019-02-11T18:36:36.064Z,79.81
2019-02-11T18:39:49.766Z,79.54
2019-02-11T18:43:03.331Z,78.60
2019-02-11T18:46:16.778Z,78.32
2019-02-11T18:49:34.543Z,77.93
2019-02-11T18:52:45.955Z,77.67
2019-02-11T18:55:59.355Z,77.17
2019-02-11T18:59:12.987Z,77.81
2019-02-11T19:02:26.452Z,77.24
2019-02-11T19:05:39.902Z,77.87
2019-02-11T19:08:53.372Z,77.62
2019-02-11T19:12:07.192Z,77.66
2019-02-11T19:15:20.978Z,77.74
2019-02-11T19:18:34.443Z,77.80
2019-02-11T19:21:48.136Z,77.86
2019-02-11T19:25:01.953Z,77.55
2019-02-11T19:28:15.457Z,76.66
2019-02-11T19:31:29.435Z,76.80
2019-02-11T19:34:42.899Z,76.78
2019-02-11T19:37:56.470Z,76.89
2019-02-11T19:41:10.267Z,76.69
2019-02-11T19:44:23.729Z,76.11
2019-02-11T19:47:37.219Z,76.26
2019-02-11T19:50:50.682Z,76.56
2019-02-11T19:54:04.936Z,76.76
2019-02-11T19:57:18.710Z,76.76
2019-02-11T20:00:32.509Z,76.79
2019-02-11T20:03:46.336Z,77.06
2019-02-11T20:06:59.814Z,77.08
2019-02-11T20:10:13.787Z,77.12
2019-02-11T20:13:27.474Z,77.18
2019-02-11T20:16:41.025Z,76.96
2019-02-11T20:20:00.169Z,76.95
2019-02-11T20:23:10.051Z,77.08
2019-02-11T20:26:24.009Z,77.05
2019-02-11T20:29:37.704Z,77.55
2019-02-11T20:32:51.491Z,78.18
2019-02-11T20:36:05.192Z,78.47
2019-02-11T20:39:18.994Z,78.77
2019-02-11T20:42:32.675Z,78.96
2019-02-11T20:45:46.135Z,78.92
2019-02-11T20:48:59.837Z,79.64
2019-02-11T20:52:13.401Z,79.59
2019-02-11T20:55:26.853Z,80.47
2019-02-11T20:58:40.764Z,80.06
2019-02-11T21:01:54.218Z,80.51
2019-02-11T21:05:08.152Z,80.76
2019-02-11T21:08:21.864Z,81.75
2019-02-11T21:11:35.566Z,82.36
2019-02-11T21:14:49.267Z,82.58
2019-02-11T21:18:02.715Z,82.46
2019-02-11T21:21:16.169Z,82.53
2019-02-11T21:24:29.625Z,82.38
2019-02-11T21:27:43.427Z,81.95
2019-02-11T21:30:56.884Z,81.97
2019-02-11T21:34:10.390Z,82.40
2019-02-11T21:37:23.790Z,82.52
2019-02-11T21:40:37.246Z,82.25
2019-02-11T21:43:50.688Z,82.08
2019-02-11T21:47:04.144Z,82.34
2019-02-11T21:50:26.079Z,82.73
2019-02-11T21:53:33.069Z,82.73
2019-02-11T21:56:46.968Z,82.96
2019-02-11T22:00:00.669Z,83.04
2019-02-11T22:03:14.215Z,82.93
2019-02-11T22:06:28.009Z,82.62
2019-02-11T22:09:41.715Z,83.06
2019-02-11T22:12:55.523Z,83.59
2019-02-11T22:16:09.231Z,83.93
2019-02-11T22:19:24.784Z,83.92
2019-02-11T22:22:38.736Z,83.88
2019-02-11T22:25:52.416Z,84.30
2019-02-11T22:29:05.864Z,84.40
2019-02-11T22:32:19.315Z,84.45
2019-02-11T22:35:32.755Z,84.82
2019-02-11T22:38:46.310Z,85.11
2019-02-11T22:41:59.859Z,84.51
2019-02-11T22:45:15.542Z,84.66
2019-02-11T22:48:28.999Z,84.90
2019-02-11T22:51:42.686Z,84.75
2019-02-11T22:54:56.371Z,85.12
2019-02-11T22:58:09.825Z,85.24
2019-02-11T23:01:23.579Z,85.27
2019-02-11T23:04:37.025Z,85.24
2019-02-11T23:07:50.695Z,85.24
2019-02-11T23:11:04.243Z,85.12
2019-02-11T23:14:17.703Z,85.17
2019-02-11T23:17:31.161Z,84.96
2019-02-11T23:20:51.746Z,84.92
2019-02-11T23:24:00.112Z,84.86
2019-02-11T23:27:13.893Z,84.84
2019-02-11T23:30:27.812Z,84.82
2019-02-11T23:33:41.600Z,85.24
2019-02-11T23:36:55.148Z,85.32
2019-02-11T23:40:08.817Z,85.62
2019-02-11T23:43:22.613Z,85.51
2019-02-11T23:46:36.155Z,86.09
2019-02-11T23:49:49.628Z,87.05
2019-02-11T23:53:03.286Z,86.74
2019-02-11T23:56:16.727Z,86.58
2019-02-11T23:59:30.404Z,86.67
